• Join FlightAware (Why Join?)
  • Login
  • US Flag 
04:03AM EST


 

Airport Tracker/Info


-or-


 

Live Flight TrackerFlight Track Log ✈ VH-SFH ✈ 24-Jul-2013 ✈ YTGM / XTG - YSGE / SGO

Flight Track Log - Related Links

Times and Time Zones

All times are in EDT time to prevent confusion due to time zone crossing. See the VH-SFH flight status page for this flight to view local times or setup timezone preferences in your user account.

Time Position Orientation Groundspeed Altitude Reporting Facility
EDT Latitude Longitude Course Direction KTS MPH feet Rate Location/Type
06:53PM -27.9968 143.9279 92° East 7,000  Level Aus ATC (Calculated)
06:54PM -28.0003 144.0409 92° East 7,000  Level Aus ATC (Calculated)
06:56PM -28.0012 144.0765 92° East  Level Estimated
06:57PM -28.0022 144.1089 92° East  Level FlightAware Approximate
06:57PM -28.0003 144.0409 92° East 7,000  Level Aus ATC (Calculated)
06:58PM -28.0032 144.1413 92° East  Level FlightAware Approximate
06:59PM -28.0014 144.0765 92° East  Level FlightAware Approximate
07:00PM -28.0023 144.1089 92° East  Level FlightAware Approximate
07:01PM -28.0033 144.1413 92° East  Level FlightAware Approximate
07:02PM -28.0042 144.1737 92° East  Level FlightAware Approximate
07:03PM -28.0051 144.2061 92° East  Level FlightAware Approximate
07:03PM -28.0069 144.2669 92° East 7,000  Level Aus ATC (Calculated)
07:05PM -28.0081 144.3094 92° East  Level FlightAware Approximate
07:06PM -28.0090 144.3424 92° East  Level FlightAware Approximate
07:07PM -28.0099 144.3755 92° East  Level FlightAware Approximate
07:08PM -28.0109 144.4086 92° East  Level FlightAware Approximate
07:09PM -28.0117 144.4417 92° East  Level FlightAware Approximate
07:10PM -28.0126 144.4747 92° East  Level FlightAware Approximate
07:11PM -28.0135 144.5078 92° East  Level FlightAware Approximate
07:12PM -28.0144 144.5409 92° East  Level FlightAware Approximate
07:13PM -28.0153 144.5740 92° East  Level FlightAware Approximate
07:14PM -28.0161 144.6071 92° East  Level FlightAware Approximate
07:14PM -28.0161 144.6060 92° East 7,000  Level Aus ATC (Calculated)
07:16PM -28.0173 144.6518 92° East  Level FlightAware Approximate
07:16PM -28.0161 144.6060 92° East 7,000  Level Aus ATC (Calculated)
07:18PM -28.0177 144.6694 92° East  Level FlightAware Approximate
07:19PM -28.0186 144.7025 92° East  Level FlightAware Approximate
07:19PM -28.0190 144.7191 254° West 7,000  Level Aus ATC (Calculated)
07:19PM -28.0190 144.7191 92° East 7,000  Level Aus ATC (Calculated)
07:21PM -28.0206 144.7820 92° East  Level FlightAware Approximate
07:22PM -28.0214 144.8149 92° East  Level FlightAware Approximate
07:23PM -28.0222 144.8477 92° East  Level FlightAware Approximate
07:24PM -28.0230 144.8806 92° East  Level FlightAware Approximate
07:25PM -28.0238 144.9135 92° East  Level FlightAware Approximate
07:26PM -28.0245 144.9463 92° East  Level FlightAware Approximate
07:27PM -28.0253 144.9792 92° East  Level FlightAware Approximate
07:28PM -28.0261 145.0120 92° East  Level FlightAware Approximate
07:29PM -28.0268 145.0449 91° East  Level FlightAware Approximate
07:30PM -28.0276 145.0777 91° East  Level FlightAware Approximate
07:31PM -28.0283 145.1106 91° East  Level FlightAware Approximate
07:32PM -28.0290 145.1435 92° East  Level FlightAware Approximate
07:33PM -28.0298 145.1764 91° East  Level FlightAware Approximate
07:34PM -28.0305 145.2092 91° East  Level FlightAware Approximate
07:35PM -28.0312 145.2421 91° East  Level FlightAware Approximate
07:36PM -28.0319 145.2749 91° East  Level FlightAware Approximate
07:37PM -28.0326 145.3078 91° East  Level FlightAware Approximate
07:38PM -28.0332 145.3407 91° East  Level FlightAware Approximate
07:39PM -28.0339 145.3735 91° East  Level FlightAware Approximate
07:40PM -28.0345 145.4064 91° East  Level Estimated
07:41PM -28.0350 145.4393 91° East  Level FlightAware Approximate
07:42PM -28.0356 145.4721 91° East  Level FlightAware Approximate
07:43PM -28.0361 145.5050 91° East  Level FlightAware Approximate
07:44PM -28.0367 145.5379 91° East  Level FlightAware Approximate
07:44PM -28.0366 145.5105 91° East 7,000  Level Aus ATC (Calculated)
07:46PM -28.0376 145.5697 91° East  Level FlightAware Approximate
07:47PM -28.0381 145.6034 91° East  Level FlightAware Approximate
07:47PM -28.0388 145.6236 91° East 7,000  Level Aus ATC (Calculated)
07:48PM -28.0393 145.6574 91° East  Level FlightAware Approximate
07:49PM -28.0398 145.6912 91° East  Level FlightAware Approximate
07:50PM -28.0403 145.7250 91° East  Level FlightAware Approximate
07:51PM -28.0408 145.7588 91° East  Level FlightAware Approximate
07:52PM -28.0413 145.7926 91° East  Level FlightAware Approximate
07:53PM -28.0417 145.8264 91° East  Level FlightAware Approximate
07:54PM -28.0422 145.8602 91° East  Level FlightAware Approximate
07:55PM -28.0427 145.8940 91° East  Level FlightAware Approximate
07:56PM -28.0431 145.9278 91° East  Level FlightAware Approximate
07:57PM -28.0435 145.9616 91° East  Level FlightAware Approximate
07:58PM -28.0440 145.9954 91° East  Level FlightAware Approximate
07:59PM -28.0444 146.0292 91° East  Level FlightAware Approximate
08:00PM -28.0448 146.0630 91° East  Level FlightAware Approximate
08:01PM -28.0452 146.0968 91° East  Level FlightAware Approximate
08:02PM -28.0456 146.1306 91° East  Level FlightAware Approximate
08:03PM -28.0460 146.1644 91° East  Level FlightAware Approximate
08:04PM -28.0464 146.1982 91° East  Level FlightAware Approximate
08:05PM -28.0467 146.2320 91° East  Level FlightAware Approximate
08:06PM -28.0471 146.2658 91° East  Level FlightAware Approximate
08:07PM -28.0474 146.2996 91° East  Level FlightAware Approximate
08:08PM -28.0478 146.3334 91° East  Level FlightAware Approximate
08:09PM -28.0481 146.3672 91° East  Level FlightAware Approximate
08:10PM -28.0484 146.4010 91° East  Level FlightAware Approximate
08:10PM -28.0480 146.3559 360° North 7,000  Level Aus ATC (Calculated)
08:10PM -28.0480 146.3559 91° East 7,000  Level Aus ATC (Calculated)
08:11PM -28.0483 146.3897 91° East  Level FlightAware Approximate
08:12PM -28.0484 146.4015 91° East  Level FlightAware Approximate
08:12PM -28.0489 146.4474 91° East 7,000  Level Aus ATC (Calculated)
08:14PM -28.0494 146.5024 91° East  Level FlightAware Approximate
08:15PM -28.0497 146.5358 91° East  Level FlightAware Approximate
08:16PM -28.0499 146.5691 91° East  Level FlightAware Approximate
08:16PM -28.0497 146.5390 91° East 7,000  Level Aus ATC (Calculated)
08:18PM -28.0501 146.5940 91° East  Level FlightAware Approximate
08:19PM -28.0504 146.6273 91° East  Level FlightAware Approximate
08:20PM -28.0507 146.6606 91° East  Level FlightAware Approximate
08:21PM -28.0509 146.6940 90° East  Level FlightAware Approximate
08:21PM -28.0511 146.7221 90° East 7,000  Level Aus ATC (Calculated)
08:23PM -28.0515 146.7738 90° East  Level FlightAware Approximate
08:24PM -28.0517 146.8071 90° East  Level FlightAware Approximate
08:25PM -28.0519 146.8404 90° East  Level Estimated
08:26PM -28.0520 146.8737 90° East  Level FlightAware Approximate
08:27PM -28.0522 146.9071 90° East  Level FlightAware Approximate
08:27PM -28.0523 146.9052 90° East 7,000  Level Aus ATC (Calculated)
08:28PM -28.0528 146.9967 90° East 7,000  Level Aus ATC (Calculated)
08:30PM -28.0530 147.0622 90° East  Level FlightAware Approximate
08:31PM -28.0531 147.0958 90° East  Level FlightAware Approximate
08:31PM -28.0533 147.0883 360° North 7,000  Level Aus ATC (Calculated)
08:32PM -28.0533 147.0883 90° East 100 -5,760 Descending Aus ATC (Calculated)
08:34PM -28.0534 147.1392 90° East  Level FlightAware Approximate
08:35PM -28.0535 147.1728 90° East  Level FlightAware Approximate
08:36PM -28.0535 147.2063 90° East  Level FlightAware Approximate
08:37PM -28.0536 147.2399 90° East  Level FlightAware Approximate
08:38PM -28.0536 147.2735 90° East  Level FlightAware Approximate
08:39PM -28.0536 147.3071 90° East  Level FlightAware Approximate
08:40PM -28.0536 147.3406 90° East  Level FlightAware Approximate
08:41PM -28.0536 147.3742 90° East  Level FlightAware Approximate
08:42PM -28.0536 147.4078 90° East  Level FlightAware Approximate
08:43PM -28.0536 147.4413 90° East  Level FlightAware Approximate
08:44PM -28.0536 147.4749 90° East  Level FlightAware Approximate
08:45PM -28.0536 147.5085 90° East  Level FlightAware Approximate
08:46PM -28.0535 147.5421 90° East  Level FlightAware Approximate
08:47PM -28.0535 147.5756 90° East  Level FlightAware Approximate
08:48PM -28.0534 147.6092 90° East  Level FlightAware Approximate
08:49PM -28.0534 147.6428 90° East  Level FlightAware Approximate
08:50PM -28.0533 147.6763 90° East  Level FlightAware Approximate
08:51PM -28.0532 147.7099 90° East  Level FlightAware Approximate
08:52PM -28.0532 147.7435 90° East  Level FlightAware Approximate
08:53PM -28.0531 147.7770 90° East  Level FlightAware Approximate
08:54PM -28.0530 147.8106 90° East  Level FlightAware Approximate
08:55PM -28.0529 147.8442 90° East  Level FlightAware Approximate
08:56PM -28.0527 147.8777 90° East  Level FlightAware Approximate
08:57PM -28.0526 147.9113 90° East  Level FlightAware Approximate
08:58PM -28.0525 147.9449 90° East  Level FlightAware Approximate
08:59PM -28.0523 147.9785 90° East  Level FlightAware Approximate
09:00PM -28.0522 148.0120 90° East  Level FlightAware Approximate
09:01PM -28.0520 148.0456 90° East  Level FlightAware Approximate
09:02PM -28.0519 148.0792 90° East  Level FlightAware Approximate
09:03PM -28.0517 148.1127 90° East  Level FlightAware Approximate
09:03PM -28.0516 148.1246 90° East 100  Level Aus ATC (Calculated)
09:04PM -28.0515 148.1463 90° East  Level FlightAware Approximate
09:05PM -28.0513 148.1799 90° East  Level FlightAware Approximate
09:06PM -28.0513 148.1923 90° East  Level FlightAware Approximate
09:07PM -28.0511 148.2258 90° East  Level FlightAware Approximate
09:08PM -28.0508 148.2594 90° East  Level FlightAware Approximate
09:09PM -28.0506 148.2930 90° East  Level FlightAware Approximate
09:10PM -28.0504 148.3266 90° East  Level FlightAware Approximate
09:11PM -28.0503 148.3601 190° South  Level Estimated
09:12PM -28.0503 148.3937 190° South  Level Estimated
09:12PM -28.0498 148.4072 90° East 100  Level Aus ATC (Calculated)
09:13PM -28.0498 148.4408 190° South  Level Estimated
09:14PM -28.0498 148.4743 190° South  Level Estimated